sensor_id;sensor_type;location;lat;lon;timestamp;temperature;humidity
59857;DHT22;45733;52.668;6.860;2023-12-20T00:01:00;9.60;99.90
59857;DHT22;45733;52.668;6.860;2023-12-20T00:03:26;9.60;99.90
59857;DHT22;45733;52.668;6.860;2023-12-20T00:05:52;9.60;99.90
59857;DHT22;45733;52.668;6.860;2023-12-20T00:08:17;9.60;99.90
59857;DHT22;45733;52.668;6.860;2023-12-20T00:10:44;9.60;99.90
59857;DHT22;45733;52.668;6.860;2023-12-20T00:13:12;9.60;99.90
59857;DHT22;45733;52.668;6.860;2023-12-20T00:15:38;9.60;99.90
59857;DHT22;45733;52.668;6.860;2023-12-20T00:18:04;9.50;99.90
59857;DHT22;45733;52.668;6.860;2023-12-20T00:20:30;9.50;99.90
59857;DHT22;45733;52.668;6.860;2023-12-20T00:22:57;9.40;99.90
59857;DHT22;45733;52.668;6.860;2023-12-20T00:25:26;9.60;99.90
59857;DHT22;45733;52.668;6.860;2023-12-20T00:27:51;9.50;99.90
59857;DHT22;45733;52.668;6.860;2023-12-20T00:30:18;9.70;99.90
59857;DHT22;45733;52.668;6.860;2023-12-20T00:32:44;9.80;99.90
59857;DHT22;45733;52.668;6.860;2023-12-20T00:35:13;9.70;99.90
59857;DHT22;45733;52.668;6.860;2023-12-20T00:37:39;9.70;99.90
59857;DHT22;45733;52.668;6.860;2023-12-20T00:40:06;9.80;99.90
59857;DHT22;45733;52.668;6.860;2023-12-20T00:42:33;9.70;99.90
59857;DHT22;45733;52.668;6.860;2023-12-20T00:44:59;9.50;99.90
59857;DHT22;45733;52.668;6.860;2023-12-20T00:47:25;9.50;99.90
59857;DHT22;45733;52.668;6.860;2023-12-20T00:49:51;9.40;99.90
59857;DHT22;45733;52.668;6.860;2023-12-20T00:52:18;9.30;99.90
59857;DHT22;45733;52.668;6.860;2023-12-20T00:54:44;9.20;99.90
59857;DHT22;45733;52.668;6.860;2023-12-20T00:57:10;9.30;99.90
59857;DHT22;45733;52.668;6.860;2023-12-20T00:59:35;9.30;99.90
59857;DHT22;45733;52.668;6.860;2023-12-20T01:02:02;9.20;99.90
59857;DHT22;45733;52.668;6.860;2023-12-20T01:04:27;9.20;99.90
59857;DHT22;45733;52.668;6.860;2023-12-20T01:06:53;9.20;99.90
59857;DHT22;45733;52.668;6.860;2023-12-20T01:09:19;9.20;99.90
59857;DHT22;45733;52.668;6.860;2023-12-20T01:11:45;9.20;99.90
59857;DHT22;45733;52.668;6.860;2023-12-20T01:14:12;9.10;99.90
59857;DHT22;45733;52.668;6.860;2023-12-20T01:16:38;9.30;99.90
59857;DHT22;45733;52.668;6.860;2023-12-20T01:19:03;9.30;99.90
59857;DHT22;45733;52.668;6.860;2023-12-20T01:21:29;9.20;99.90
59857;DHT22;45733;52.668;6.860;2023-12-20T01:23:55;9.20;99.90
59857;DHT22;45733;52.668;6.860;2023-12-20T01:26:21;9.20;99.90
59857;DHT22;45733;52.668;6.860;2023-12-20T01:28:47;9.20;99.90
59857;DHT22;45733;52.668;6.860;2023-12-20T01:31:13;9.20;99.90
59857;DHT22;45733;52.668;6.860;2023-12-20T01:33:38;9.30;99.90
59857;DHT22;45733;52.668;6.860;2023-12-20T01:36:04;9.30;99.90
59857;DHT22;45733;52.668;6.860;2023-12-20T01:38:30;9.30;99.90
59857;DHT22;45733;52.668;6.860;2023-12-20T01:40:56;9.40;99.90
59857;DHT22;45733;52.668;6.860;2023-12-20T01:43:21;9.40;99.90
59857;DHT22;45733;52.668;6.860;2023-12-20T01:45:47;9.30;99.90
59857;DHT22;45733;52.668;6.860;2023-12-20T01:48:15;9.40;99.90
59857;DHT22;45733;52.668;6.860;2023-12-20T01:50:42;9.40;99.90
59857;DHT22;45733;52.668;6.860;2023-12-20T01:53:10;9.30;99.90
59857;DHT22;45733;52.668;6.860;2023-12-20T01:55:40;9.40;99.90
59857;DHT22;45733;52.668;6.860;2023-12-20T01:58:07;9.30;99.90
59857;DHT22;45733;52.668;6.860;2023-12-20T02:00:33;9.30;99.90
59857;DHT22;45733;52.668;6.860;2023-12-20T02:03:04;9.30;99.90
59857;DHT22;45733;52.668;6.860;2023-12-20T02:05:31;9.30;99.90
59857;DHT22;45733;52.668;6.860;2023-12-20T02:07:57;9.30;99.90
59857;DHT22;45733;52.668;6.860;2023-12-20T02:10:24;9.20;99.90
59857;DHT22;45733;52.668;6.860;2023-12-20T02:12:50;9.20;99.90
59857;DHT22;45733;52.668;6.860;2023-12-20T02:15:18;9.10;99.90
59857;DHT22;45733;52.668;6.860;2023-12-20T02:17:44;9.10;99.90
59857;DHT22;45733;52.668;6.860;2023-12-20T02:20:10;9.20;99.90
59857;DHT22;45733;52.668;6.860;2023-12-20T02:22:36;9.20;99.90
59857;DHT22;45733;52.668;6.860;2023-12-20T02:25:02;9.30;99.90
59857;DHT22;45733;52.668;6.860;2023-12-20T02:27:29;9.10;99.90
59857;DHT22;45733;52.668;6.860;2023-12-20T02:29:55;9.20;99.90
59857;DHT22;45733;52.668;6.860;2023-12-20T02:32:21;9.30;99.90
59857;DHT22;45733;52.668;6.860;2023-12-20T02:34:48;9.40;99.90
59857;DHT22;45733;52.668;6.860;2023-12-20T02:37:14;9.40;99.90
59857;DHT22;45733;52.668;6.860;2023-12-20T02:39:40;9.50;99.90
59857;DHT22;45733;52.668;6.860;2023-12-20T02:42:06;9.40;99.90
59857;DHT22;45733;52.668;6.860;2023-12-20T02:44:34;9.50;99.90
59857;DHT22;45733;52.668;6.860;2023-12-20T02:47:00;9.50;99.90
59857;DHT22;45733;52.668;6.860;2023-12-20T02:49:26;9.60;99.90
59857;DHT22;45733;52.668;6.860;2023-12-20T02:51:51;9.50;99.90
59857;DHT22;45733;52.668;6.860;2023-12-20T02:54:17;9.50;99.90
59857;DHT22;45733;52.668;6.860;2023-12-20T02:56:43;9.70;99.90
59857;DHT22;45733;52.668;6.860;2023-12-20T02:59:08;9.70;99.90
59857;DHT22;45733;52.668;6.860;2023-12-20T03:01:34;9.80;99.90
59857;DHT22;45733;52.668;6.860;2023-12-20T03:04:01;9.60;99.90
59857;DHT22;45733;52.668;6.860;2023-12-20T03:06:27;9.70;99.90
59857;DHT22;45733;52.668;6.860;2023-12-20T03:08:52;9.80;99.90
59857;DHT22;45733;52.668;6.860;2023-12-20T03:11:18;9.80;99.90
59857;DHT22;45733;52.668;6.860;2023-12-20T03:13:44;9.80;99.90
59857;DHT22;45733;52.668;6.860;2023-12-20T03:16:13;9.80;99.90
59857;DHT22;45733;52.668;6.860;2023-12-20T03:18:39;9.90;99.90
59857;DHT22;45733;52.668;6.860;2023-12-20T03:21:05;10.00;99.90
59857;DHT22;45733;52.668;6.860;2023-12-20T03:23:31;9.90;99.90
59857;DHT22;45733;52.668;6.860;2023-12-20T03:25:59;9.90;99.90
59857;DHT22;45733;52.668;6.860;2023-12-20T03:28:26;9.90;99.90
59857;DHT22;45733;52.668;6.860;2023-12-20T03:30:52;10.00;99.90
59857;DHT22;45733;52.668;6.860;2023-12-20T03:33:17;9.90;99.90
59857;DHT22;45733;52.668;6.860;2023-12-20T03:35:43;9.90;99.90
59857;DHT22;45733;52.668;6.860;2023-12-20T03:38:09;10.00;99.90
59857;DHT22;45733;52.668;6.860;2023-12-20T03:40:35;9.80;99.90
59857;DHT22;45733;52.668;6.860;2023-12-20T03:43:00;10.00;99.90
59857;DHT22;45733;52.668;6.860;2023-12-20T03:45:26;10.00;99.90
59857;DHT22;45733;52.668;6.860;2023-12-20T03:47:52;10.10;99.90
59857;DHT22;45733;52.668;6.860;2023-12-20T03:50:25;9.80;99.90
59857;DHT22;45733;52.668;6.860;2023-12-20T03:52:51;9.80;99.90
59857;DHT22;45733;52.668;6.860;2023-12-20T03:55:17;10.00;99.90
59857;DHT22;45733;52.668;6.860;2023-12-20T03:57:43;9.90;99.90
59857;DHT22;45733;52.668;6.860;2023-12-20T04:00:09;9.90;99.90
59857;DHT22;45733;52.668;6.860;2023-12-20T04:02:38;9.60;99.90
59857;DHT22;45733;52.668;6.860;2023-12-20T04:05:05;9.70;99.90
59857;DHT22;45733;52.668;6.860;2023-12-20T04:07:31;9.60;99.90
59857;DHT22;45733;52.668;6.860;2023-12-20T04:09:57;9.70;99.90
59857;DHT22;45733;52.668;6.860;2023-12-20T04:12:23;9.70;99.90
59857;DHT22;45733;52.668;6.860;2023-12-20T04:14:48;9.80;99.90
59857;DHT22;45733;52.668;6.860;2023-12-20T04:17:15;9.90;99.90
59857;DHT22;45733;52.668;6.860;2023-12-20T04:19:42;9.70;99.90
59857;DHT22;45733;52.668;6.860;2023-12-20T04:22:07;9.80;99.90
59857;DHT22;45733;52.668;6.860;2023-12-20T04:24:33;9.70;99.90
59857;DHT22;45733;52.668;6.860;2023-12-20T04:26:59;9.50;99.90
59857;DHT22;45733;52.668;6.860;2023-12-20T04:29:24;9.70;99.90
59857;DHT22;45733;52.668;6.860;2023-12-20T04:31:50;9.70;99.90
59857;DHT22;45733;52.668;6.860;2023-12-20T04:34:17;9.50;99.90
59857;DHT22;45733;52.668;6.860;2023-12-20T04:36:43;9.70;99.90
59857;DHT22;45733;52.668;6.860;2023-12-20T04:39:09;9.80;99.90
59857;DHT22;45733;52.668;6.860;2023-12-20T04:41:35;9.70;99.90
59857;DHT22;45733;52.668;6.860;2023-12-20T04:44:00;9.70;99.90
59857;DHT22;45733;52.668;6.860;2023-12-20T04:46:26;9.90;99.90
59857;DHT22;45733;52.668;6.860;2023-12-20T04:48:52;9.70;99.90
59857;DHT22;45733;52.668;6.860;2023-12-20T04:51:18;9.70;99.90
59857;DHT22;45733;52.668;6.860;2023-12-20T04:53:43;10.00;99.90
59857;DHT22;45733;52.668;6.860;2023-12-20T04:56:09;9.80;99.90
59857;DHT22;45733;52.668;6.860;2023-12-20T04:58:35;10.00;99.90
59857;DHT22;45733;52.668;6.860;2023-12-20T05:01:01;9.90;99.90
59857;DHT22;45733;52.668;6.860;2023-12-20T05:03:26;10.10;99.90
59857;DHT22;45733;52.668;6.860;2023-12-20T05:05:52;10.00;99.90
59857;DHT22;45733;52.668;6.860;2023-12-20T05:08:18;9.90;99.90
59857;DHT22;45733;52.668;6.860;2023-12-20T05:10:43;9.90;99.90
59857;DHT22;45733;52.668;6.860;2023-12-20T05:13:09;10.10;99.90
59857;DHT22;45733;52.668;6.860;2023-12-20T05:15:35;10.20;99.90
59857;DHT22;45733;52.668;6.860;2023-12-20T05:18:00;10.10;99.90
59857;DHT22;45733;52.668;6.860;2023-12-20T05:20:26;10.10;99.90
59857;DHT22;45733;52.668;6.860;2023-12-20T05:22:52;10.20;99.90
59857;DHT22;45733;52.668;6.860;2023-12-20T05:25:17;10.10;99.90
59857;DHT22;45733;52.668;6.860;2023-12-20T05:27:43;10.10;99.90
59857;DHT22;45733;52.668;6.860;2023-12-20T05:30:09;10.20;99.90
59857;DHT22;45733;52.668;6.860;2023-12-20T05:32:35;10.30;99.90
59857;DHT22;45733;52.668;6.860;2023-12-20T05:35:01;10.20;99.90
59857;DHT22;45733;52.668;6.860;2023-12-20T05:37:26;10.30;99.90
59857;DHT22;45733;52.668;6.860;2023-12-20T05:39:52;10.10;99.90
59857;DHT22;45733;52.668;6.860;2023-12-20T05:42:18;10.30;99.90
59857;DHT22;45733;52.668;6.860;2023-12-20T05:44:43;10.20;99.90
59857;DHT22;45733;52.668;6.860;2023-12-20T05:47:09;10.30;99.90
59857;DHT22;45733;52.668;6.860;2023-12-20T05:49:35;10.30;99.90
59857;DHT22;45733;52.668;6.860;2023-12-20T05:52:00;10.20;99.90
59857;DHT22;45733;52.668;6.860;2023-12-20T05:54:26;10.40;99.90
59857;DHT22;45733;52.668;6.860;2023-12-20T05:56:52;10.20;99.90
59857;DHT22;45733;52.668;6.860;2023-12-20T05:59:17;10.30;99.90
59857;DHT22;45733;52.668;6.860;2023-12-20T06:01:43;10.40;99.90
59857;DHT22;45733;52.668;6.860;2023-12-20T06:04:09;10.40;99.90
59857;DHT22;45733;52.668;6.860;2023-12-20T06:06:40;10.30;99.90
59857;DHT22;45733;52.668;6.860;2023-12-20T06:09:06;10.40;99.90
59857;DHT22;45733;52.668;6.860;2023-12-20T06:11:32;10.50;99.90
59857;DHT22;45733;52.668;6.860;2023-12-20T06:13:57;10.30;99.90
59857;DHT22;45733;52.668;6.860;2023-12-20T06:16:23;10.50;99.90
59857;DHT22;45733;52.668;6.860;2023-12-20T06:18:49;10.50;99.90
59857;DHT22;45733;52.668;6.860;2023-12-20T06:21:14;10.40;99.90
59857;DHT22;45733;52.668;6.860;2023-12-20T06:23:40;10.40;99.90
59857;DHT22;45733;52.668;6.860;2023-12-20T06:26:06;10.50;99.90
59857;DHT22;45733;52.668;6.860;2023-12-20T06:28:32;10.40;99.90
59857;DHT22;45733;52.668;6.860;2023-12-20T06:30:57;10.50;99.90
59857;DHT22;45733;52.668;6.860;2023-12-20T06:33:23;10.50;99.90
59857;DHT22;45733;52.668;6.860;2023-12-20T06:35:49;10.50;99.90
59857;DHT22;45733;52.668;6.860;2023-12-20T06:38:15;10.50;99.90
59857;DHT22;45733;52.668;6.860;2023-12-20T06:40:41;10.50;99.90
59857;DHT22;45733;52.668;6.860;2023-12-20T06:43:08;10.50;99.90
59857;DHT22;45733;52.668;6.860;2023-12-20T06:45:33;10.60;99.90
59857;DHT22;45733;52.668;6.860;2023-12-20T06:48:00;10.50;99.90
59857;DHT22;45733;52.668;6.860;2023-12-20T06:50:25;10.60;99.90
59857;DHT22;45733;52.668;6.860;2023-12-20T06:52:51;10.60;99.90
59857;DHT22;45733;52.668;6.860;2023-12-20T06:55:18;10.70;99.90
59857;DHT22;45733;52.668;6.860;2023-12-20T06:57:43;10.60;99.90
59857;DHT22;45733;52.668;6.860;2023-12-20T07:00:11;10.70;99.90
59857;DHT22;45733;52.668;6.860;2023-12-20T07:02:37;10.60;99.90
59857;DHT22;45733;52.668;6.860;2023-12-20T07:05:03;10.60;99.90
59857;DHT22;45733;52.668;6.860;2023-12-20T07:07:28;10.70;99.90
59857;DHT22;45733;52.668;6.860;2023-12-20T07:09:54;10.70;99.90
59857;DHT22;45733;52.668;6.860;2023-12-20T07:12:20;10.70;99.90
59857;DHT22;45733;52.668;6.860;2023-12-20T07:14:46;10.70;99.90
59857;DHT22;45733;52.668;6.860;2023-12-20T07:17:12;10.70;99.90
59857;DHT22;45733;52.668;6.860;2023-12-20T07:19:40;10.70;99.90
59857;DHT22;45733;52.668;6.860;2023-12-20T07:22:07;10.80;99.90
59857;DHT22;45733;52.668;6.860;2023-12-20T07:24:33;10.80;99.90
59857;DHT22;45733;52.668;6.860;2023-12-20T07:26:59;10.80;99.90
59857;DHT22;45733;52.668;6.860;2023-12-20T07:29:25;10.70;99.90
59857;DHT22;45733;52.668;6.860;2023-12-20T07:31:52;10.80;99.90
59857;DHT22;45733;52.668;6.860;2023-12-20T07:34:20;10.80;99.90
59857;DHT22;45733;52.668;6.860;2023-12-20T07:36:45;10.80;99.90
59857;DHT22;45733;52.668;6.860;2023-12-20T07:39:11;10.90;99.90
59857;DHT22;45733;52.668;6.860;2023-12-20T07:41:37;10.80;99.90
59857;DHT22;45733;52.668;6.860;2023-12-20T07:44:04;10.80;99.90
59857;DHT22;45733;52.668;6.860;2023-12-20T07:46:30;10.90;99.90
59857;DHT22;45733;52.668;6.860;2023-12-20T07:48:56;10.90;99.90
59857;DHT22;45733;52.668;6.860;2023-12-20T07:51:22;10.90;99.90
59857;DHT22;45733;52.668;6.860;2023-12-20T07:53:47;10.90;99.90
59857;DHT22;45733;52.668;6.860;2023-12-20T07:56:14;10.90;99.90
59857;DHT22;45733;52.668;6.860;2023-12-20T07:58:40;10.90;99.90
59857;DHT22;45733;52.668;6.860;2023-12-20T08:01:06;10.90;99.90
59857;DHT22;45733;52.668;6.860;2023-12-20T08:03:32;10.90;99.90
59857;DHT22;45733;52.668;6.860;2023-12-20T08:05:57;10.90;99.90
59857;DHT22;45733;52.668;6.860;2023-12-20T08:08:25;10.90;99.90
59857;DHT22;45733;52.668;6.860;2023-12-20T08:10:50;10.90;99.90
59857;DHT22;45733;52.668;6.860;2023-12-20T08:13:16;10.90;99.90
59857;DHT22;45733;52.668;6.860;2023-12-20T08:15:42;10.90;99.90
59857;DHT22;45733;52.668;6.860;2023-12-20T08:18:07;10.90;99.90
59857;DHT22;45733;52.668;6.860;2023-12-20T08:20:33;10.90;99.90
59857;DHT22;45733;52.668;6.860;2023-12-20T08:22:59;11.00;99.90
59857;DHT22;45733;52.668;6.860;2023-12-20T08:25:24;10.90;99.90
59857;DHT22;45733;52.668;6.860;2023-12-20T08:27:50;11.00;99.90
59857;DHT22;45733;52.668;6.860;2023-12-20T08:30:16;11.00;99.90
59857;DHT22;45733;52.668;6.860;2023-12-20T08:32:46;10.90;99.90
59857;DHT22;45733;52.668;6.860;2023-12-20T08:35:11;10.90;99.90
59857;DHT22;45733;52.668;6.860;2023-12-20T08:37:37;11.00;99.90
59857;DHT22;45733;52.668;6.860;2023-12-20T08:40:03;11.10;99.90
59857;DHT22;45733;52.668;6.860;2023-12-20T08:42:29;11.10;99.90
59857;DHT22;45733;52.668;6.860;2023-12-20T08:44:57;11.10;99.90
59857;DHT22;45733;52.668;6.860;2023-12-20T08:47:24;11.10;99.90
59857;DHT22;45733;52.668;6.860;2023-12-20T08:49:50;11.10;99.90
59857;DHT22;45733;52.668;6.860;2023-12-20T08:52:16;11.20;99.90
59857;DHT22;45733;52.668;6.860;2023-12-20T08:54:41;11.20;99.90
59857;DHT22;45733;52.668;6.860;2023-12-20T08:57:07;11.20;99.90
59857;DHT22;45733;52.668;6.860;2023-12-20T08:59:33;11.20;99.90
59857;DHT22;45733;52.668;6.860;2023-12-20T09:01:59;11.20;99.90
59857;DHT22;45733;52.668;6.860;2023-12-20T09:04:25;11.20;99.90
59857;DHT22;45733;52.668;6.860;2023-12-20T09:06:50;11.20;99.90
59857;DHT22;45733;52.668;6.860;2023-12-20T09:09:16;11.30;99.90
59857;DHT22;45733;52.668;6.860;2023-12-20T09:11:42;11.30;99.90
59857;DHT22;45733;52.668;6.860;2023-12-20T09:14:08;11.30;99.90
59857;DHT22;45733;52.668;6.860;2023-12-20T09:16:33;11.40;99.90
59857;DHT22;45733;52.668;6.860;2023-12-20T09:18:59;11.40;99.90
59857;DHT22;45733;52.668;6.860;2023-12-20T09:21:25;11.50;99.90
59857;DHT22;45733;52.668;6.860;2023-12-20T09:23:51;11.50;99.90
59857;DHT22;45733;52.668;6.860;2023-12-20T09:26:16;11.50;99.90
59857;DHT22;45733;52.668;6.860;2023-12-20T09:28:42;11.60;99.90
59857;DHT22;45733;52.668;6.860;2023-12-20T09:31:11;11.60;99.90
59857;DHT22;45733;52.668;6.860;2023-12-20T09:33:36;11.60;99.90
59857;DHT22;45733;52.668;6.860;2023-12-20T09:36:02;11.60;99.90
59857;DHT22;45733;52.668;6.860;2023-12-20T09:38:28;11.70;99.90
59857;DHT22;45733;52.668;6.860;2023-12-20T09:40:54;11.70;99.90
59857;DHT22;45733;52.668;6.860;2023-12-20T09:43:24;11.80;99.90
59857;DHT22;45733;52.668;6.860;2023-12-20T09:45:53;11.80;99.90
59857;DHT22;45733;52.668;6.860;2023-12-20T09:48:19;11.80;99.90
59857;DHT22;45733;52.668;6.860;2023-12-20T09:50:45;11.80;99.90
59857;DHT22;45733;52.668;6.860;2023-12-20T09:53:15;11.80;99.90
59857;DHT22;45733;52.668;6.860;2023-12-20T09:55:41;11.90;99.90
59857;DHT22;45733;52.668;6.860;2023-12-20T09:58:08;12.20;99.90
59857;DHT22;45733;52.668;6.860;2023-12-20T10:00:35;12.40;99.90
59857;DHT22;45733;52.668;6.860;2023-12-20T10:03:01;12.60;99.90
59857;DHT22;45733;52.668;6.860;2023-12-20T10:05:31;12.60;99.90
59857;DHT22;45733;52.668;6.860;2023-12-20T10:07:58;12.40;99.90
59857;DHT22;45733;52.668;6.860;2023-12-20T10:10:24;12.30;99.90
59857;DHT22;45733;52.668;6.860;2023-12-20T10:13:08;12.20;99.90
59857;DHT22;45733;52.668;6.860;2023-12-20T10:15:34;12.20;99.90
59857;DHT22;45733;52.668;6.860;2023-12-20T10:18:01;12.10;99.90
59857;DHT22;45733;52.668;6.860;2023-12-20T10:20:27;12.10;99.90
59857;DHT22;45733;52.668;6.860;2023-12-20T10:22:55;11.90;99.90
59857;DHT22;45733;52.668;6.860;2023-12-20T10:25:21;11.20;99.90
59857;DHT22;45733;52.668;6.860;2023-12-20T10:27:47;10.90;99.90
59857;DHT22;45733;52.668;6.860;2023-12-20T10:30:13;10.90;99.90
59857;DHT22;45733;52.668;6.860;2023-12-20T10:32:40;10.80;99.90
59857;DHT22;45733;52.668;6.860;2023-12-20T10:35:06;10.70;99.90
59857;DHT22;45733;52.668;6.860;2023-12-20T10:37:36;10.60;99.90
59857;DHT22;45733;52.668;6.860;2023-12-20T10:40:04;10.60;99.90
59857;DHT22;45733;52.668;6.860;2023-12-20T10:42:31;10.50;99.90
59857;DHT22;45733;52.668;6.860;2023-12-20T10:45:02;10.60;99.90
59857;DHT22;45733;52.668;6.860;2023-12-20T10:47:30;10.60;99.90
59857;DHT22;45733;52.668;6.860;2023-12-20T10:49:57;10.50;99.90
59857;DHT22;45733;52.668;6.860;2023-12-20T10:52:25;10.50;99.90
59857;DHT22;45733;52.668;6.860;2023-12-20T10:54:52;10.60;99.90
59857;DHT22;45733;52.668;6.860;2023-12-20T10:57:18;10.50;99.90
59857;DHT22;45733;52.668;6.860;2023-12-20T10:59:45;10.50;99.90
59857;DHT22;45733;52.668;6.860;2023-12-20T11:02:14;10.50;99.90
59857;DHT22;45733;52.668;6.860;2023-12-20T11:05:22;10.50;99.90
59857;DHT22;45733;52.668;6.860;2023-12-20T11:07:54;10.50;99.90
59857;DHT22;45733;52.668;6.860;2023-12-20T11:10:26;10.60;99.90
59857;DHT22;45733;52.668;6.860;2023-12-20T11:13:06;10.60;99.90
59857;DHT22;45733;52.668;6.860;2023-12-20T11:15:36;10.60;99.90
59857;DHT22;45733;52.668;6.860;2023-12-20T11:18:03;10.60;99.90
59857;DHT22;45733;52.668;6.860;2023-12-20T11:20:40;10.70;99.90
59857;DHT22;45733;52.668;6.860;2023-12-20T11:23:07;10.70;99.90
59857;DHT22;45733;52.668;6.860;2023-12-20T11:25:54;10.70;99.90
59857;DHT22;45733;52.668;6.860;2023-12-20T11:28:24;10.70;99.90
59857;DHT22;45733;52.668;6.860;2023-12-20T11:30:55;10.70;99.90
59857;DHT22;45733;52.668;6.860;2023-12-20T11:33:25;10.70;99.90
59857;DHT22;45733;52.668;6.860;2023-12-20T11:35:51;10.70;99.90
59857;DHT22;45733;52.668;6.860;2023-12-20T11:38:21;10.70;99.90
59857;DHT22;45733;52.668;6.860;2023-12-20T11:40:49;10.70;99.90
59857;DHT22;45733;52.668;6.860;2023-12-20T11:46:05;10.80;99.90
59857;DHT22;45733;52.668;6.860;2023-12-20T11:48:34;10.80;99.90
59857;DHT22;45733;52.668;6.860;2023-12-20T11:51:00;10.80;99.90
59857;DHT22;45733;52.668;6.860;2023-12-20T11:53:25;10.90;99.90
59857;DHT22;45733;52.668;6.860;2023-12-20T11:55:51;10.90;99.90
59857;DHT22;45733;52.668;6.860;2023-12-20T11:58:17;10.90;99.90
59857;DHT22;45733;52.668;6.860;2023-12-20T12:00:43;10.90;99.90
59857;DHT22;45733;52.668;6.860;2023-12-20T12:03:09;10.90;99.90
59857;DHT22;45733;52.668;6.860;2023-12-20T12:05:35;10.90;99.90
59857;DHT22;45733;52.668;6.860;2023-12-20T12:08:04;10.90;99.90
59857;DHT22;45733;52.668;6.860;2023-12-20T12:10:31;10.90;99.90
59857;DHT22;45733;52.668;6.860;2023-12-20T12:12:56;10.80;99.90
59857;DHT22;45733;52.668;6.860;2023-12-20T12:15:22;10.80;99.90
59857;DHT22;45733;52.668;6.860;2023-12-20T12:17:55;10.80;99.90
59857;DHT22;45733;52.668;6.860;2023-12-20T12:20:22;10.90;99.90
59857;DHT22;45733;52.668;6.860;2023-12-20T12:23:04;10.80;99.90
59857;DHT22;45733;52.668;6.860;2023-12-20T12:25:30;10.90;99.90
59857;DHT22;45733;52.668;6.860;2023-12-20T12:27:57;10.90;99.90
59857;DHT22;45733;52.668;6.860;2023-12-20T12:30:24;10.90;99.90
59857;DHT22;45733;52.668;6.860;2023-12-20T12:32:51;10.90;99.90
59857;DHT22;45733;52.668;6.860;2023-12-20T12:35:17;10.90;99.90
59857;DHT22;45733;52.668;6.860;2023-12-20T12:37:44;11.00;99.90
59857;DHT22;45733;52.668;6.860;2023-12-20T12:40:11;10.90;99.90
59857;DHT22;45733;52.668;6.860;2023-12-20T12:42:37;10.90;99.90
59857;DHT22;45733;52.668;6.860;2023-12-20T12:45:03;10.80;99.90
59857;DHT22;45733;52.668;6.860;2023-12-20T12:47:30;10.80;99.90
59857;DHT22;45733;52.668;6.860;2023-12-20T12:49:56;10.80;99.90
59857;DHT22;45733;52.668;6.860;2023-12-20T12:52:22;10.80;99.90
59857;DHT22;45733;52.668;6.860;2023-12-20T12:54:48;10.80;99.90
59857;DHT22;45733;52.668;6.860;2023-12-20T12:57:14;10.80;99.90
59857;DHT22;45733;52.668;6.860;2023-12-20T12:59:42;10.80;99.90
59857;DHT22;45733;52.668;6.860;2023-12-20T13:02:08;10.70;99.90
59857;DHT22;45733;52.668;6.860;2023-12-20T13:04:33;10.70;99.90
59857;DHT22;45733;52.668;6.860;2023-12-20T13:06:59;10.70;99.90
59857;DHT22;45733;52.668;6.860;2023-12-20T13:09:25;10.60;99.90
59857;DHT22;45733;52.668;6.860;2023-12-20T13:11:51;10.60;99.90
59857;DHT22;45733;52.668;6.860;2023-12-20T13:14:16;10.60;99.90
59857;DHT22;45733;52.668;6.860;2023-12-20T13:16:42;10.60;99.90
59857;DHT22;45733;52.668;6.860;2023-12-20T13:19:08;10.50;99.90
59857;DHT22;45733;52.668;6.860;2023-12-20T13:21:35;10.50;99.90
59857;DHT22;45733;52.668;6.860;2023-12-20T13:24:01;10.50;99.90
59857;DHT22;45733;52.668;6.860;2023-12-20T13:26:27;10.40;99.90
59857;DHT22;45733;52.668;6.860;2023-12-20T13:28:54;10.40;99.90
59857;DHT22;45733;52.668;6.860;2023-12-20T13:31:20;10.30;99.90
59857;DHT22;45733;52.668;6.860;2023-12-20T13:33:46;10.30;99.90
59857;DHT22;45733;52.668;6.860;2023-12-20T13:36:12;10.20;99.90
59857;DHT22;45733;52.668;6.860;2023-12-20T13:38:38;10.20;99.90
59857;DHT22;45733;52.668;6.860;2023-12-20T13:41:04;10.20;99.90
59857;DHT22;45733;52.668;6.860;2023-12-20T13:43:31;10.10;99.90
59857;DHT22;45733;52.668;6.860;2023-12-20T13:46:04;10.10;99.90
59857;DHT22;45733;52.668;6.860;2023-12-20T13:48:29;10.10;99.90
59857;DHT22;45733;52.668;6.860;2023-12-20T13:50:55;10.00;99.90
59857;DHT22;45733;52.668;6.860;2023-12-20T13:53:21;9.90;99.90
59857;DHT22;45733;52.668;6.860;2023-12-20T13:55:46;10.00;99.90
59857;DHT22;45733;52.668;6.860;2023-12-20T13:58:12;10.00;99.90
59857;DHT22;45733;52.668;6.860;2023-12-20T14:00:38;10.00;99.90
59857;DHT22;45733;52.668;6.860;2023-12-20T14:03:04;10.00;99.90
59857;DHT22;45733;52.668;6.860;2023-12-20T14:05:30;10.00;99.90
59857;DHT22;45733;52.668;6.860;2023-12-20T14:07:57;10.00;99.90
59857;DHT22;45733;52.668;6.860;2023-12-20T14:10:26;10.00;99.90
59857;DHT22;45733;52.668;6.860;2023-12-20T14:12:53;9.90;99.90
59857;DHT22;45733;52.668;6.860;2023-12-20T14:15:19;10.00;99.90
59857;DHT22;45733;52.668;6.860;2023-12-20T14:17:44;9.90;99.90
59857;DHT22;45733;52.668;6.860;2023-12-20T14:20:11;10.00;99.90
59857;DHT22;45733;52.668;6.860;2023-12-20T14:22:40;10.00;99.90
59857;DHT22;45733;52.668;6.860;2023-12-20T14:25:11;9.90;99.90
59857;DHT22;45733;52.668;6.860;2023-12-20T14:27:38;9.90;99.90
59857;DHT22;45733;52.668;6.860;2023-12-20T14:30:05;10.10;99.90
59857;DHT22;45733;52.668;6.860;2023-12-20T14:32:31;10.00;99.90
59857;DHT22;45733;52.668;6.860;2023-12-20T14:34:57;10.10;99.90
59857;DHT22;45733;52.668;6.860;2023-12-20T14:37:23;10.20;99.90
59857;DHT22;45733;52.668;6.860;2023-12-20T14:39:49;10.10;99.90
59857;DHT22;45733;52.668;6.860;2023-12-20T14:42:14;10.10;99.90
59857;DHT22;45733;52.668;6.860;2023-12-20T14:44:40;10.20;99.90
59857;DHT22;45733;52.668;6.860;2023-12-20T14:47:06;10.20;99.90
59857;DHT22;45733;52.668;6.860;2023-12-20T14:49:32;10.10;99.90
59857;DHT22;45733;52.668;6.860;2023-12-20T14:51:58;10.00;99.90
59857;DHT22;45733;52.668;6.860;2023-12-20T14:54:25;10.00;99.90
59857;DHT22;45733;52.668;6.860;2023-12-20T14:56:51;10.10;99.90
59857;DHT22;45733;52.668;6.860;2023-12-20T14:59:16;10.20;99.90
59857;DHT22;45733;52.668;6.860;2023-12-20T15:01:43;10.10;99.90
59857;DHT22;45733;52.668;6.860;2023-12-20T15:04:09;10.30;99.90
59857;DHT22;45733;52.668;6.860;2023-12-20T15:06:36;10.20;99.90
59857;DHT22;45733;52.668;6.860;2023-12-20T15:09:01;10.30;99.90
59857;DHT22;45733;52.668;6.860;2023-12-20T15:11:34;10.30;99.90
59857;DHT22;45733;52.668;6.860;2023-12-20T15:14:01;10.30;99.90
59857;DHT22;45733;52.668;6.860;2023-12-20T15:16:26;10.30;99.90
59857;DHT22;45733;52.668;6.860;2023-12-20T15:18:53;10.40;99.90
59857;DHT22;45733;52.668;6.860;2023-12-20T15:21:22;10.40;99.90
59857;DHT22;45733;52.668;6.860;2023-12-20T15:23:56;10.70;99.90
59857;DHT22;45733;52.668;6.860;2023-12-20T15:26:34;10.70;99.90
59857;DHT22;45733;52.668;6.860;2023-12-20T15:29:00;10.80;99.90
59857;DHT22;45733;52.668;6.860;2023-12-20T15:31:27;10.80;99.90
59857;DHT22;45733;52.668;6.860;2023-12-20T15:33:53;11.00;99.90